UAL422 KLAX-PHOG
Flight info
| Callsign | UAL422 |
|---|---|
| Flight time | N/A |
| Altitude | 38000 |
| Route | SUMMR2 DINTY DCT DUETS R576 DADIE/N0478F400 R576 DENNS LNDHY1 |
| Aircraft | B772/H-SDE2E3FGHIJ5LORVWXY/LB1D1 |
Departure
| Time | 2026-04-22 00:33 |
|---|---|
| Airport | Los Angeles International Airport (KLAX) |
Arrival
| Time | N/A |
|---|---|
| Airport | Kahului International Airport (PHOG) |
| Time | Latitude | Longitude | Altitude | Speed | Heading |
|---|---|---|---|---|---|
| 2026-04-22 00:03 | 33.94027 | -118.39993 | 130 ft | 0 kts | 28° |
| 2026-04-22 00:19 | 33.94023 | -118.39995 | 124 ft | 2 kts | 28° |
| 2026-04-22 00:19 | 33.94009 | -118.40005 | 127 ft | 2 kts | 26° |
| 2026-04-22 00:20 | 33.93994 | -118.40013 | 124 ft | 2 kts | 30° |
| 2026-04-22 00:20 | 33.93980 | -118.40024 | 124 ft | 2 kts | 41° |
| 2026-04-22 00:20 | 33.93968 | -118.40038 | 124 ft | 2 kts | 49° |
| 2026-04-22 00:20 | 33.93958 | -118.40054 | 124 ft | 2 kts | 66° |
| 2026-04-22 00:21 | 33.93956 | -118.40061 | 124 ft | 0 kts | 82° |
| 2026-04-22 00:23 | 33.93959 | -118.40036 | 127 ft | 7 kts | 83° |
| 2026-04-22 00:24 | 33.93964 | -118.39974 | 127 ft | 8 kts | 83° |
| 2026-04-22 00:24 | 33.93971 | -118.39906 | 128 ft | 8 kts | 83° |
| 2026-04-22 00:24 | 33.93973 | -118.39839 | 130 ft | 8 kts | 104° |
| 2026-04-22 00:24 | 33.93936 | -118.39793 | 127 ft | 8 kts | 146° |
| 2026-04-22 00:25 | 33.93907 | -118.39734 | 126 ft | 11 kts | 99° |
| 2026-04-22 00:25 | 33.93916 | -118.39624 | 130 ft | 16 kts | 82° |
| 2026-04-22 00:25 | 33.93932 | -118.39479 | 128 ft | 19 kts | 83° |
| 2026-04-22 00:25 | 33.93948 | -118.39319 | 128 ft | 19 kts | 83° |
| 2026-04-22 00:26 | 33.93965 | -118.39159 | 126 ft | 19 kts | 83° |
| 2026-04-22 00:26 | 33.93982 | -118.38999 | 128 ft | 19 kts | 83° |
| 2026-04-22 00:26 | 33.93998 | -118.38839 | 125 ft | 19 kts | 83° |
| 2026-04-22 00:26 | 33.94013 | -118.38679 | 125 ft | 19 kts | 83° |
| 2026-04-22 00:27 | 33.94030 | -118.38519 | 129 ft | 19 kts | 83° |
| 2026-04-22 00:27 | 33.94045 | -118.38365 | 128 ft | 17 kts | 83° |
| 2026-04-22 00:27 | 33.94059 | -118.38237 | 128 ft | 13 kts | 83° |
| 2026-04-22 00:27 | 33.94067 | -118.38160 | 130 ft | 6 kts | 83° |
| 2026-04-22 00:28 | 33.94068 | -118.38143 | 130 ft | 0 kts | 83° |
| 2026-04-22 00:28 | 33.94070 | -118.38129 | 128 ft | 5 kts | 83° |
| 2026-04-22 00:29 | 33.94074 | -118.38091 | 130 ft | 5 kts | 83° |
| 2026-04-22 00:29 | 33.94077 | -118.38063 | 130 ft | 1 kts | 83° |
| 2026-04-22 00:29 | 33.94077 | -118.38053 | 130 ft | 1 kts | 87° |
| 2026-04-22 00:29 | 33.94077 | -118.38046 | 130 ft | 0 kts | 94° |
| 2026-04-22 00:31 | 33.94075 | -118.38036 | 130 ft | 5 kts | 99° |
| 2026-04-22 00:31 | 33.94048 | -118.38006 | 129 ft | 6 kts | 155° |
| 2026-04-22 00:31 | 33.94010 | -118.38001 | 127 ft | 5 kts | 189° |
| 2026-04-22 00:31 | 33.93990 | -118.38026 | 126 ft | 4 kts | 244° |
| 2026-04-22 00:32 | 33.93985 | -118.38050 | 126 ft | 1 kts | 259° |
| 2026-04-22 00:32 | 33.93981 | -118.38076 | 126 ft | 12 kts | 261° |
| 2026-04-22 00:32 | 33.93948 | -118.38395 | 127 ft | 72 kts | 263° |
| 2026-04-22 00:33 | 33.93857 | -118.39273 | 132 ft | 138 kts | 263° |
| 2026-04-22 00:33 | 33.93726 | -118.40563 | 524 ft | 158 kts | 263° |
| 2026-04-22 00:33 | 33.93588 | -118.41904 | 1254 ft | 164 kts | 264° |
| 2026-04-22 00:33 | 33.93450 | -118.43252 | 1915 ft | 166 kts | 263° |
| 2026-04-22 00:34 | 33.93311 | -118.44638 | 2612 ft | 168 kts | 264° |
| 2026-04-22 00:34 | 33.93170 | -118.46064 | 2997 ft | 182 kts | 263° |
| 2026-04-22 00:34 | 33.93037 | -118.47629 | 3314 ft | 195 kts | 264° |
| 2026-04-22 00:34 | 33.92896 | -118.49318 | 3637 ft | 215 kts | 264° |
| 2026-04-22 00:35 | 33.92739 | -118.51202 | 3940 ft | 238 kts | 264° |
| 2026-04-22 00:35 | 33.92573 | -118.53215 | 4637 ft | 242 kts | 263° |
| 2026-04-22 00:35 | 33.92406 | -118.55240 | 5480 ft | 243 kts | 263° |
| 2026-04-22 00:35 | 33.92237 | -118.57285 | 6203 ft | 248 kts | 263° |
| 2026-04-22 00:36 | 33.92063 | -118.59375 | 6939 ft | 252 kts | 263° |
| 2026-04-22 00:36 | 33.91886 | -118.61499 | 7650 ft | 256 kts | 262° |
| 2026-04-22 00:36 | 33.91738 | -118.63647 | 8429 ft | 259 kts | 265° |
| 2026-04-22 00:36 | 33.91716 | -118.65829 | 9245 ft | 260 kts | 267° |
| 2026-04-22 00:37 | 33.91724 | -118.68008 | 10076 ft | 261 kts | 267° |
| 2026-04-22 00:37 | 33.91730 | -118.70205 | 10544 ft | 275 kts | 267° |
| 2026-04-22 00:37 | 33.91729 | -118.72640 | 10710 ft | 299 kts | 267° |
| 2026-04-22 00:37 | 33.91724 | -118.75242 | 10895 ft | 323 kts | 267° |
| 2026-04-22 00:38 | 33.91715 | -118.77989 | 11303 ft | 338 kts | 267° |
| 2026-04-22 00:38 | 33.91704 | -118.80855 | 11925 ft | 344 kts | 267° |
| 2026-04-22 00:38 | 33.91694 | -118.83762 | 11995 ft | 349 kts | 268° |
| 2026-04-22 00:38 | 33.91760 | -118.86706 | 12663 ft | 353 kts | 270° |
| 2026-04-22 00:39 | 33.91867 | -118.89654 | 13724 ft | 351 kts | 270° |
| 2026-04-22 00:39 | 33.91969 | -118.92579 | 14604 ft | 351 kts | 269° |
| 2026-04-22 00:39 | 33.92061 | -118.95531 | 15372 ft | 353 kts | 269° |
| 2026-04-22 00:39 | 33.92148 | -118.98502 | 16108 ft | 356 kts | 269° |
| 2026-04-22 00:40 | 33.92475 | -119.01471 | 16660 ft | 364 kts | 282° |
| 2026-04-22 00:40 | 33.93477 | -119.04274 | 17336 ft | 375 kts | 295° |
| 2026-04-22 00:40 | 33.94879 | -119.06942 | 18133 ft | 377 kts | 297° |
| 2026-04-22 00:40 | 33.96309 | -119.09605 | 18793 ft | 380 kts | 296° |
| 2026-04-22 00:41 | 33.97729 | -119.12300 | 19391 ft | 382 kts | 296° |
| 2026-04-22 00:41 | 33.99140 | -119.15022 | 19990 ft | 384 kts | 296° |
| 2026-04-22 00:41 | 34.00586 | -119.17738 | 20554 ft | 388 kts | 300° |
| 2026-04-22 00:41 | 34.02507 | -119.20115 | 20988 ft | 405 kts | 315° |
| 2026-04-22 00:42 | 34.04836 | -119.22097 | 21368 ft | 412 kts | 317° |
| 2026-04-22 00:42 | 34.07213 | -119.24077 | 21898 ft | 415 kts | 317° |
| 2026-04-22 00:42 | 34.09592 | -119.26070 | 22529 ft | 416 kts | 317° |
| 2026-04-22 00:42 | 34.11969 | -119.28082 | 23134 ft | 418 kts | 316° |
| 2026-04-22 00:43 | 34.14351 | -119.30117 | 23669 ft | 421 kts | 316° |
| 2026-04-22 00:43 | 34.16715 | -119.32149 | 24105 ft | 424 kts | 316° |
| 2026-04-22 00:43 | 34.19125 | -119.34226 | 24550 ft | 426 kts | 316° |
| 2026-04-22 00:43 | 34.21550 | -119.36320 | 25000 ft | 429 kts | 316° |
| 2026-04-22 00:44 | 34.23986 | -119.38424 | 25428 ft | 431 kts | 316° |
| 2026-04-22 00:44 | 34.26435 | -119.40541 | 25834 ft | 434 kts | 316° |
| 2026-04-22 00:44 | 34.28902 | -119.42674 | 26240 ft | 436 kts | 316° |
| 2026-04-22 00:44 | 34.31378 | -119.44816 | 26633 ft | 438 kts | 316° |
| 2026-04-22 00:45 | 34.33867 | -119.46970 | 27006 ft | 441 kts | 316° |
| 2026-04-22 00:45 | 34.36317 | -119.49119 | 27337 ft | 436 kts | 313° |
| 2026-04-22 00:45 | 34.38366 | -119.51726 | 27468 ft | 424 kts | 296° |
| 2026-04-22 00:45 | 34.39654 | -119.54895 | 27805 ft | 415 kts | 284° |
| 2026-04-22 00:46 | 34.40433 | -119.58237 | 28204 ft | 410 kts | 277° |
| 2026-04-22 00:46 | 34.40670 | -119.61646 | 28503 ft | 402 kts | 265° |
| 2026-04-22 00:46 | 34.40430 | -119.65047 | 28603 ft | 408 kts | 263° |
| 2026-04-22 00:46 | 34.40147 | -119.68478 | 28832 ft | 410 kts | 263° |
| 2026-04-22 00:47 | 34.39863 | -119.71920 | 29198 ft | 410 kts | 263° |
| 2026-04-22 00:47 | 34.39591 | -119.75372 | 29508 ft | 411 kts | 263° |
| 2026-04-22 00:47 | 34.39329 | -119.78834 | 29749 ft | 413 kts | 263° |
| 2026-04-22 00:47 | 34.39074 | -119.82308 | 30021 ft | 414 kts | 263° |
| 2026-04-22 00:48 | 34.38828 | -119.85730 | 30344 ft | 413 kts | 263° |
| 2026-04-22 00:48 | 34.38581 | -119.89186 | 30653 ft | 411 kts | 263° |
| 2026-04-22 00:48 | 34.38334 | -119.92640 | 30929 ft | 411 kts | 264° |
| 2026-04-22 00:48 | 34.38088 | -119.96081 | 31201 ft | 410 kts | 264° |
| 2026-04-22 00:49 | 34.37839 | -119.99532 | 31478 ft | 410 kts | 264° |
| 2026-04-22 00:49 | 34.37591 | -120.02966 | 31746 ft | 409 kts | 264° |
| 2026-04-22 00:49 | 34.37341 | -120.06394 | 32017 ft | 408 kts | 264° |
| 2026-04-22 00:49 | 34.37091 | -120.09819 | 32293 ft | 408 kts | 264° |